sensor_id;sensor_type;location;lat;lon;timestamp;temperature;humidity
40756;DHT22;26461;45.630;9.418;2023-06-22T00:00:58;27.20;51.30
40756;DHT22;26461;45.630;9.418;2023-06-22T00:04:11;27.10;51.40
40756;DHT22;26461;45.630;9.418;2023-06-22T00:07:28;27.10;51.20
40756;DHT22;26461;45.630;9.418;2023-06-22T00:10:38;27.10;51.30
40756;DHT22;26461;45.630;9.418;2023-06-22T00:13:52;27.10;51.20
40756;DHT22;26461;45.630;9.418;2023-06-22T00:17:08;27.10;51.10
40756;DHT22;26461;45.630;9.418;2023-06-22T00:20:26;27.10;51.30
40756;DHT22;26461;45.630;9.418;2023-06-22T00:23:46;27.10;51.30
40756;DHT22;26461;45.630;9.418;2023-06-22T00:26:57;27.10;51.40
40756;DHT22;26461;45.630;9.418;2023-06-22T00:30:03;27.10;51.30
40756;DHT22;26461;45.630;9.418;2023-06-22T00:33:13;27.10;51.40
40756;DHT22;26461;45.630;9.418;2023-06-22T00:36:24;27.10;51.30
40756;DHT22;26461;45.630;9.418;2023-06-22T00:39:34;27.10;51.40
40756;DHT22;26461;45.630;9.418;2023-06-22T00:42:40;27.00;51.30
40756;DHT22;26461;45.630;9.418;2023-06-22T00:45:51;27.00;51.50
40756;DHT22;26461;45.630;9.418;2023-06-22T00:49:02;27.00;51.80
40756;DHT22;26461;45.630;9.418;2023-06-22T00:52:10;26.90;52.20
40756;DHT22;26461;45.630;9.418;2023-06-22T00:55:19;26.80;52.40
40756;DHT22;26461;45.630;9.418;2023-06-22T00:58:25;26.70;52.50
40756;DHT22;26461;45.630;9.418;2023-06-22T01:01:36;26.70;52.80
40756;DHT22;26461;45.630;9.418;2023-06-22T01:04:51;26.60;53.10
40756;DHT22;26461;45.630;9.418;2023-06-22T01:12:06;26.50;53.20
40756;DHT22;26461;45.630;9.418;2023-06-22T01:15:45;26.50;53.30
40756;DHT22;26461;45.630;9.418;2023-06-22T01:19:09;26.50;53.50
40756;DHT22;26461;45.630;9.418;2023-06-22T01:22:23;26.50;53.50
40756;DHT22;26461;45.630;9.418;2023-06-22T01:28:55;26.50;53.80
40756;DHT22;26461;45.630;9.418;2023-06-22T01:32:03;26.40;53.70
40756;DHT22;26461;45.630;9.418;2023-06-22T01:35:15;26.40;53.90
40756;DHT22;26461;45.630;9.418;2023-06-22T01:38:26;26.40;54.10
40756;DHT22;26461;45.630;9.418;2023-06-22T01:41:38;26.30;54.20
40756;DHT22;26461;45.630;9.418;2023-06-22T01:44:45;26.30;54.10
40756;DHT22;26461;45.630;9.418;2023-06-22T01:47:56;26.30;54.20
40756;DHT22;26461;45.630;9.418;2023-06-22T01:51:07;26.30;54.30
40756;DHT22;26461;45.630;9.418;2023-06-22T01:54:12;26.30;54.50
40756;DHT22;26461;45.630;9.418;2023-06-22T01:57:24;26.20;54.70
40756;DHT22;26461;45.630;9.418;2023-06-22T02:00:38;26.20;54.80
40756;DHT22;26461;45.630;9.418;2023-06-22T02:03:52;26.20;54.70
40756;DHT22;26461;45.630;9.418;2023-06-22T02:07:06;26.30;54.80
40756;DHT22;26461;45.630;9.418;2023-06-22T02:10:16;26.30;54.80
40756;DHT22;26461;45.630;9.418;2023-06-22T02:13:28;26.30;54.70
40756;DHT22;26461;45.630;9.418;2023-06-22T02:16:33;26.30;54.70
40756;DHT22;26461;45.630;9.418;2023-06-22T02:19:44;26.30;54.70
40756;DHT22;26461;45.630;9.418;2023-06-22T02:22:50;26.40;54.60
40756;DHT22;26461;45.630;9.418;2023-06-22T02:26:01;26.40;54.70
40756;DHT22;26461;45.630;9.418;2023-06-22T02:29:12;26.40;54.60
40756;DHT22;26461;45.630;9.418;2023-06-22T02:32:23;26.30;54.60
40756;DHT22;26461;45.630;9.418;2023-06-22T02:35:34;26.30;54.60
40756;DHT22;26461;45.630;9.418;2023-06-22T02:38:43;26.30;54.60
40756;DHT22;26461;45.630;9.418;2023-06-22T02:41:58;26.30;54.70
40756;DHT22;26461;45.630;9.418;2023-06-22T02:45:09;26.30;54.60
40756;DHT22;26461;45.630;9.418;2023-06-22T02:48:21;26.30;54.70
40756;DHT22;26461;45.630;9.418;2023-06-22T02:51:33;26.30;54.70
40756;DHT22;26461;45.630;9.418;2023-06-22T02:54:45;26.30;54.70
40756;DHT22;26461;45.630;9.418;2023-06-22T02:57:56;26.30;54.60
40756;DHT22;26461;45.630;9.418;2023-06-22T03:01:12;26.30;54.50
40756;DHT22;26461;45.630;9.418;2023-06-22T03:04:24;26.40;54.60
40756;DHT22;26461;45.630;9.418;2023-06-22T03:07:35;26.40;54.60
40756;DHT22;26461;45.630;9.418;2023-06-22T03:10:47;26.40;54.60
40756;DHT22;26461;45.630;9.418;2023-06-22T03:14:00;26.30;54.50
40756;DHT22;26461;45.630;9.418;2023-06-22T03:17:06;26.30;54.60
40756;DHT22;26461;45.630;9.418;2023-06-22T03:20:16;26.30;54.90
40756;DHT22;26461;45.630;9.418;2023-06-22T03:23:23;26.30;54.90
40756;DHT22;26461;45.630;9.418;2023-06-22T03:26:33;26.30;55.40
40756;DHT22;26461;45.630;9.418;2023-06-22T03:29:44;26.30;55.80
40756;DHT22;26461;45.630;9.418;2023-06-22T03:32:49;26.20;55.80
40756;DHT22;26461;45.630;9.418;2023-06-22T03:36:00;26.20;56.10
40756;DHT22;26461;45.630;9.418;2023-06-22T03:39:05;26.20;56.10
40756;DHT22;26461;45.630;9.418;2023-06-22T03:42:16;26.20;55.50
40756;DHT22;26461;45.630;9.418;2023-06-22T03:45:22;26.10;55.20
40756;DHT22;26461;45.630;9.418;2023-06-22T03:48:32;26.00;55.20
40756;DHT22;26461;45.630;9.418;2023-06-22T03:51:37;26.00;55.20
40756;DHT22;26461;45.630;9.418;2023-06-22T03:54:49;26.00;55.40
40756;DHT22;26461;45.630;9.418;2023-06-22T03:58:00;26.00;55.20
40756;DHT22;26461;45.630;9.418;2023-06-22T04:01:16;26.00;55.40
40756;DHT22;26461;45.630;9.418;2023-06-22T04:04:27;26.00;55.20
40756;DHT22;26461;45.630;9.418;2023-06-22T04:07:32;26.10;55.30
40756;DHT22;26461;45.630;9.418;2023-06-22T04:10:38;26.10;55.20
40756;DHT22;26461;45.630;9.418;2023-06-22T04:13:48;26.10;55.20
40756;DHT22;26461;45.630;9.418;2023-06-22T04:17:01;26.00;54.90
40756;DHT22;26461;45.630;9.418;2023-06-22T04:20:11;26.10;54.80
40756;DHT22;26461;45.630;9.418;2023-06-22T04:23:22;26.10;54.80
40756;DHT22;26461;45.630;9.418;2023-06-22T04:26:32;26.10;54.40
40756;DHT22;26461;45.630;9.418;2023-06-22T04:29:46;26.10;54.10
40756;DHT22;26461;45.630;9.418;2023-06-22T04:32:58;26.00;54.20
40756;DHT22;26461;45.630;9.418;2023-06-22T04:36:09;26.10;54.30
40756;DHT22;26461;45.630;9.418;2023-06-22T04:39:23;26.00;54.20
40756;DHT22;26461;45.630;9.418;2023-06-22T04:42:35;26.00;54.30
40756;DHT22;26461;45.630;9.418;2023-06-22T04:45:46;26.00;54.30
40756;DHT22;26461;45.630;9.418;2023-06-22T04:48:58;26.00;54.30
40756;DHT22;26461;45.630;9.418;2023-06-22T04:52:10;26.00;54.30
40756;DHT22;26461;45.630;9.418;2023-06-22T04:55:20;26.10;54.30
40756;DHT22;26461;45.630;9.418;2023-06-22T04:58:30;26.10;54.30
40756;DHT22;26461;45.630;9.418;2023-06-22T05:01:37;26.20;54.30
40756;DHT22;26461;45.630;9.418;2023-06-22T05:04:55;26.20;54.30
40756;DHT22;26461;45.630;9.418;2023-06-22T05:08:06;26.20;54.10
40756;DHT22;26461;45.630;9.418;2023-06-22T05:11:12;26.20;54.00
40756;DHT22;26461;45.630;9.418;2023-06-22T05:14:22;26.20;54.00
40756;DHT22;26461;45.630;9.418;2023-06-22T05:17:35;26.10;53.80
40756;DHT22;26461;45.630;9.418;2023-06-22T05:20:45;26.00;54.10
40756;DHT22;26461;45.630;9.418;2023-06-22T05:23:57;26.00;54.20
40756;DHT22;26461;45.630;9.418;2023-06-22T05:27:07;26.00;54.50
40756;DHT22;26461;45.630;9.418;2023-06-22T05:30:17;26.00;54.50
40756;DHT22;26461;45.630;9.418;2023-06-22T05:33:28;26.00;54.60
40756;DHT22;26461;45.630;9.418;2023-06-22T05:36:33;26.00;54.70
40756;DHT22;26461;45.630;9.418;2023-06-22T05:39:43;26.00;54.60
40756;DHT22;26461;45.630;9.418;2023-06-22T05:42:54;26.00;54.70
40756;DHT22;26461;45.630;9.418;2023-06-22T05:46:00;26.00;54.40
40756;DHT22;26461;45.630;9.418;2023-06-22T05:49:12;26.00;54.50
40756;DHT22;26461;45.630;9.418;2023-06-22T05:52:17;26.00;54.40
40756;DHT22;26461;45.630;9.418;2023-06-22T05:55:27;26.10;54.40
40756;DHT22;26461;45.630;9.418;2023-06-22T05:58:38;26.20;54.70
40756;DHT22;26461;45.630;9.418;2023-06-22T06:01:48;26.20;54.70
40756;DHT22;26461;45.630;9.418;2023-06-22T06:04:56;26.30;54.50
40756;DHT22;26461;45.630;9.418;2023-06-22T06:08:03;26.30;54.70
40756;DHT22;26461;45.630;9.418;2023-06-22T06:11:14;26.30;54.50
40756;DHT22;26461;45.630;9.418;2023-06-22T06:14:25;26.40;54.60
40756;DHT22;26461;45.630;9.418;2023-06-22T06:17:30;26.40;54.70
40756;DHT22;26461;45.630;9.418;2023-06-22T06:20:42;26.30;54.80
40756;DHT22;26461;45.630;9.418;2023-06-22T06:23:52;26.30;55.10
40756;DHT22;26461;45.630;9.418;2023-06-22T06:26:58;26.30;55.40
40756;DHT22;26461;45.630;9.418;2023-06-22T06:30:09;26.30;55.40
40756;DHT22;26461;45.630;9.418;2023-06-22T06:33:20;26.30;55.40
40756;DHT22;26461;45.630;9.418;2023-06-22T06:36:31;26.30;55.40
40756;DHT22;26461;45.630;9.418;2023-06-22T06:39:41;26.30;55.40
40756;DHT22;26461;45.630;9.418;2023-06-22T06:42:54;26.30;55.40
40756;DHT22;26461;45.630;9.418;2023-06-22T06:46:00;26.30;55.30
40756;DHT22;26461;45.630;9.418;2023-06-22T06:49:11;26.40;55.30
40756;DHT22;26461;45.630;9.418;2023-06-22T06:52:18;26.40;55.00
40756;DHT22;26461;45.630;9.418;2023-06-22T06:55:30;26.50;55.10
40756;DHT22;26461;45.630;9.418;2023-06-22T06:58:41;26.50;54.80
40756;DHT22;26461;45.630;9.418;2023-06-22T07:01:47;26.60;54.60
40756;DHT22;26461;45.630;9.418;2023-06-22T07:04:58;26.60;54.50
40756;DHT22;26461;45.630;9.418;2023-06-22T07:08:04;26.60;53.80
40756;DHT22;26461;45.630;9.418;2023-06-22T07:11:15;26.60;54.10
40756;DHT22;26461;45.630;9.418;2023-06-22T07:14:25;26.70;53.80
40756;DHT22;26461;45.630;9.418;2023-06-22T07:17:36;26.70;53.90
40756;DHT22;26461;45.630;9.418;2023-06-22T07:20:47;26.80;53.80
40756;DHT22;26461;45.630;9.418;2023-06-22T07:23:57;26.80;53.50
40756;DHT22;26461;45.630;9.418;2023-06-22T07:27:08;26.80;53.20
40756;DHT22;26461;45.630;9.418;2023-06-22T07:30:21;26.80;52.70
40756;DHT22;26461;45.630;9.418;2023-06-22T07:33:32;26.90;52.20
40756;DHT22;26461;45.630;9.418;2023-06-22T07:36:44;26.90;51.30
40756;DHT22;26461;45.630;9.418;2023-06-22T07:39:54;26.90;51.20
40756;DHT22;26461;45.630;9.418;2023-06-22T07:43:11;27.00;51.50
40756;DHT22;26461;45.630;9.418;2023-06-22T07:46:19;27.00;50.80
40756;DHT22;26461;45.630;9.418;2023-06-22T07:49:28;27.00;51.10
40756;DHT22;26461;45.630;9.418;2023-06-22T07:52:33;27.00;51.10
40756;DHT22;26461;45.630;9.418;2023-06-22T07:55:49;27.10;50.70
40756;DHT22;26461;45.630;9.418;2023-06-22T07:59:05;27.20;51.00
40756;DHT22;26461;45.630;9.418;2023-06-22T08:02:16;27.20;50.60
40756;DHT22;26461;45.630;9.418;2023-06-22T08:05:26;27.20;50.70
40756;DHT22;26461;45.630;9.418;2023-06-22T08:08:38;27.20;50.30
40756;DHT22;26461;45.630;9.418;2023-06-22T08:11:51;27.20;50.30
40756;DHT22;26461;45.630;9.418;2023-06-22T08:15:06;27.20;50.30
40756;DHT22;26461;45.630;9.418;2023-06-22T08:18:20;27.30;50.50
40756;DHT22;26461;45.630;9.418;2023-06-22T08:21:30;27.30;50.50
40756;DHT22;26461;45.630;9.418;2023-06-22T08:24:41;27.30;50.40
40756;DHT22;26461;45.630;9.418;2023-06-22T08:27:53;27.40;50.90
40756;DHT22;26461;45.630;9.418;2023-06-22T08:30:59;27.40;51.30
40756;DHT22;26461;45.630;9.418;2023-06-22T08:34:10;27.40;51.00
40756;DHT22;26461;45.630;9.418;2023-06-22T08:37:21;27.50;51.30
40756;DHT22;26461;45.630;9.418;2023-06-22T08:40:30;27.50;51.00
40756;DHT22;26461;45.630;9.418;2023-06-22T08:43:40;27.60;51.20
40756;DHT22;26461;45.630;9.418;2023-06-22T08:46:52;27.60;51.20
40756;DHT22;26461;45.630;9.418;2023-06-22T08:50:03;27.60;51.00
40756;DHT22;26461;45.630;9.418;2023-06-22T08:53:14;27.60;51.40
40756;DHT22;26461;45.630;9.418;2023-06-22T08:56:24;27.60;50.90
40756;DHT22;26461;45.630;9.418;2023-06-22T08:59:37;27.60;51.10
40756;DHT22;26461;45.630;9.418;2023-06-22T09:02:48;27.60;50.00
40756;DHT22;26461;45.630;9.418;2023-06-22T09:05:53;27.60;49.10
40756;DHT22;26461;45.630;9.418;2023-06-22T09:09:04;27.70;49.80
40756;DHT22;26461;45.630;9.418;2023-06-22T09:12:17;27.70;50.00
40756;DHT22;26461;45.630;9.418;2023-06-22T09:15:29;27.70;50.10
40756;DHT22;26461;45.630;9.418;2023-06-22T09:18:48;27.80;50.10
40756;DHT22;26461;45.630;9.418;2023-06-22T09:21:58;27.80;49.90
40756;DHT22;26461;45.630;9.418;2023-06-22T09:25:09;27.80;50.20
40756;DHT22;26461;45.630;9.418;2023-06-22T09:28:20;27.90;49.10
40756;DHT22;26461;45.630;9.418;2023-06-22T09:31:30;27.90;49.20
40756;DHT22;26461;45.630;9.418;2023-06-22T09:34:40;27.90;48.60
40756;DHT22;26461;45.630;9.418;2023-06-22T09:37:51;27.90;48.40
40756;DHT22;26461;45.630;9.418;2023-06-22T09:41:01;28.00;48.30
40756;DHT22;26461;45.630;9.418;2023-06-22T09:44:11;28.00;48.50
40756;DHT22;26461;45.630;9.418;2023-06-22T09:47:21;28.10;48.90
40756;DHT22;26461;45.630;9.418;2023-06-22T09:50:32;28.10;47.80
40756;DHT22;26461;45.630;9.418;2023-06-22T09:53:42;28.10;46.40
40756;DHT22;26461;45.630;9.418;2023-06-22T09:56:52;28.20;46.90
40756;DHT22;26461;45.630;9.418;2023-06-22T10:00:03;28.20;46.60
40756;DHT22;26461;45.630;9.418;2023-06-22T10:03:16;28.20;46.30
40756;DHT22;26461;45.630;9.418;2023-06-22T10:06:27;28.20;46.30
40756;DHT22;26461;45.630;9.418;2023-06-22T10:09:38;28.20;46.50
40756;DHT22;26461;45.630;9.418;2023-06-22T10:12:54;28.30;45.00
40756;DHT22;26461;45.630;9.418;2023-06-22T10:16:08;28.30;45.50
40756;DHT22;26461;45.630;9.418;2023-06-22T10:19:23;28.30;46.30
40756;DHT22;26461;45.630;9.418;2023-06-22T10:22:41;28.30;46.50
40756;DHT22;26461;45.630;9.418;2023-06-22T10:25:59;28.30;46.60
40756;DHT22;26461;45.630;9.418;2023-06-22T10:29:16;28.30;46.70
40756;DHT22;26461;45.630;9.418;2023-06-22T10:32:25;28.40;47.10
40756;DHT22;26461;45.630;9.418;2023-06-22T10:35:37;28.50;46.40
40756;DHT22;26461;45.630;9.418;2023-06-22T10:39:02;28.50;46.40
40756;DHT22;26461;45.630;9.418;2023-06-22T10:42:13;28.50;46.10
40756;DHT22;26461;45.630;9.418;2023-06-22T10:45:33;28.50;45.50
40756;DHT22;26461;45.630;9.418;2023-06-22T10:48:46;28.60;45.10
40756;DHT22;26461;45.630;9.418;2023-06-22T10:52:07;28.60;45.60
40756;DHT22;26461;45.630;9.418;2023-06-22T10:55:15;28.60;44.80
40756;DHT22;26461;45.630;9.418;2023-06-22T10:58:37;28.70;45.20
40756;DHT22;26461;45.630;9.418;2023-06-22T11:01:53;28.70;45.30
40756;DHT22;26461;45.630;9.418;2023-06-22T11:05:03;28.70;44.90
40756;DHT22;26461;45.630;9.418;2023-06-22T11:08:16;28.80;44.80
40756;DHT22;26461;45.630;9.418;2023-06-22T11:11:29;28.80;45.60
40756;DHT22;26461;45.630;9.418;2023-06-22T11:14:46;28.80;44.70
40756;DHT22;26461;45.630;9.418;2023-06-22T11:17:52;28.90;44.80
40756;DHT22;26461;45.630;9.418;2023-06-22T11:21:03;28.90;45.70
40756;DHT22;26461;45.630;9.418;2023-06-22T11:24:08;29.00;45.50
40756;DHT22;26461;45.630;9.418;2023-06-22T11:27:16;29.00;44.60
40756;DHT22;26461;45.630;9.418;2023-06-22T11:30:26;29.00;44.90
40756;DHT22;26461;45.630;9.418;2023-06-22T11:33:40;29.10;44.60
40756;DHT22;26461;45.630;9.418;2023-06-22T11:36:50;29.10;43.80
40756;DHT22;26461;45.630;9.418;2023-06-22T11:39:56;29.10;44.10
40756;DHT22;26461;45.630;9.418;2023-06-22T11:43:08;29.10;43.90
40756;DHT22;26461;45.630;9.418;2023-06-22T11:46:18;29.10;44.30
40756;DHT22;26461;45.630;9.418;2023-06-22T11:49:34;29.10;44.30
40756;DHT22;26461;45.630;9.418;2023-06-22T11:52:40;29.20;43.50
40756;DHT22;26461;45.630;9.418;2023-06-22T11:55:50;29.20;43.00
40756;DHT22;26461;45.630;9.418;2023-06-22T11:59:05;29.20;43.80
40756;DHT22;26461;45.630;9.418;2023-06-22T12:02:10;29.20;43.30
40756;DHT22;26461;45.630;9.418;2023-06-22T12:05:15;29.30;43.30
40756;DHT22;26461;45.630;9.418;2023-06-22T12:08:21;29.40;43.40
40756;DHT22;26461;45.630;9.418;2023-06-22T12:11:31;29.40;43.80
40756;DHT22;26461;45.630;9.418;2023-06-22T12:14:42;29.50;43.50
40756;DHT22;26461;45.630;9.418;2023-06-22T12:17:57;29.50;44.20
40756;DHT22;26461;45.630;9.418;2023-06-22T12:21:11;29.60;44.10
40756;DHT22;26461;45.630;9.418;2023-06-22T12:24:22;29.60;44.50
40756;DHT22;26461;45.630;9.418;2023-06-22T12:27:27;29.60;44.50
40756;DHT22;26461;45.630;9.418;2023-06-22T12:30:33;29.70;44.00
40756;DHT22;26461;45.630;9.418;2023-06-22T12:33:38;29.70;42.90
40756;DHT22;26461;45.630;9.418;2023-06-22T12:36:48;29.80;42.90
40756;DHT22;26461;45.630;9.418;2023-06-22T12:39:55;29.80;43.00
40756;DHT22;26461;45.630;9.418;2023-06-22T12:43:05;29.90;42.10
40756;DHT22;26461;45.630;9.418;2023-06-22T12:46:16;29.90;43.10
40756;DHT22;26461;45.630;9.418;2023-06-22T12:49:26;30.00;43.30
40756;DHT22;26461;45.630;9.418;2023-06-22T12:52:39;30.10;42.60
40756;DHT22;26461;45.630;9.418;2023-06-22T12:55:51;30.10;42.20
40756;DHT22;26461;45.630;9.418;2023-06-22T12:58:56;30.20;42.50
40756;DHT22;26461;45.630;9.418;2023-06-22T13:02:07;30.20;43.90
40756;DHT22;26461;45.630;9.418;2023-06-22T13:05:19;30.30;44.10
40756;DHT22;26461;45.630;9.418;2023-06-22T13:08:31;30.40;44.10
40756;DHT22;26461;45.630;9.418;2023-06-22T13:11:39;30.40;44.00
40756;DHT22;26461;45.630;9.418;2023-06-22T13:14:44;30.30;44.30
40756;DHT22;26461;45.630;9.418;2023-06-22T13:17:51;30.30;44.70
40756;DHT22;26461;45.630;9.418;2023-06-22T13:21:02;30.30;45.00
40756;DHT22;26461;45.630;9.418;2023-06-22T13:24:13;30.30;45.10
40756;DHT22;26461;45.630;9.418;2023-06-22T13:27:24;30.40;45.10
40756;DHT22;26461;45.630;9.418;2023-06-22T13:30:29;30.40;45.10
40756;DHT22;26461;45.630;9.418;2023-06-22T13:33:41;30.50;44.00
40756;DHT22;26461;45.630;9.418;2023-06-22T13:36:51;30.60;44.70
40756;DHT22;26461;45.630;9.418;2023-06-22T13:39:57;30.70;44.80
40756;DHT22;26461;45.630;9.418;2023-06-22T13:43:05;30.70;45.40
40756;DHT22;26461;45.630;9.418;2023-06-22T13:46:15;30.80;44.90
40756;DHT22;26461;45.630;9.418;2023-06-22T13:49:26;30.80;44.80
40756;DHT22;26461;45.630;9.418;2023-06-22T13:52:36;30.80;44.60
40756;DHT22;26461;45.630;9.418;2023-06-22T13:55:47;30.80;44.70
40756;DHT22;26461;45.630;9.418;2023-06-22T13:58:57;30.80;44.80
40756;DHT22;26461;45.630;9.418;2023-06-22T14:02:03;30.80;45.30
40756;DHT22;26461;45.630;9.418;2023-06-22T14:05:13;30.80;45.00
40756;DHT22;26461;45.630;9.418;2023-06-22T14:08:19;30.90;44.80
40756;DHT22;26461;45.630;9.418;2023-06-22T14:11:29;30.90;45.10
40756;DHT22;26461;45.630;9.418;2023-06-22T14:14:40;30.90;45.10
40756;DHT22;26461;45.630;9.418;2023-06-22T14:17:45;30.90;45.20
40756;DHT22;26461;45.630;9.418;2023-06-22T14:20:50;30.80;44.20
40756;DHT22;26461;45.630;9.418;2023-06-22T14:24:00;30.80;44.60
40756;DHT22;26461;45.630;9.418;2023-06-22T14:27:10;30.80;44.10
40756;DHT22;26461;45.630;9.418;2023-06-22T14:30:16;30.80;44.00
40756;DHT22;26461;45.630;9.418;2023-06-22T14:33:26;30.80;43.90
40756;DHT22;26461;45.630;9.418;2023-06-22T14:36:37;30.80;44.00
40756;DHT22;26461;45.630;9.418;2023-06-22T14:39:48;30.80;44.20
40756;DHT22;26461;45.630;9.418;2023-06-22T14:42:57;30.80;44.60
40756;DHT22;26461;45.630;9.418;2023-06-22T14:46:02;30.80;45.00
40756;DHT22;26461;45.630;9.418;2023-06-22T14:49:08;30.80;46.00
40756;DHT22;26461;45.630;9.418;2023-06-22T14:52:18;30.70;45.00
40756;DHT22;26461;45.630;9.418;2023-06-22T14:55:29;30.70;45.60
40756;DHT22;26461;45.630;9.418;2023-06-22T14:58:34;30.70;45.80
40756;DHT22;26461;45.630;9.418;2023-06-22T15:01:45;30.70;45.20
40756;DHT22;26461;45.630;9.418;2023-06-22T15:04:56;30.70;46.20
40756;DHT22;26461;45.630;9.418;2023-06-22T15:08:07;30.70;46.00
40756;DHT22;26461;45.630;9.418;2023-06-22T15:11:13;30.70;46.70
40756;DHT22;26461;45.630;9.418;2023-06-22T15:14:19;30.70;46.20
40756;DHT22;26461;45.630;9.418;2023-06-22T15:17:29;30.80;46.30
40756;DHT22;26461;45.630;9.418;2023-06-22T15:20:35;30.80;46.50
40756;DHT22;26461;45.630;9.418;2023-06-22T15:23:45;30.90;45.60
40756;DHT22;26461;45.630;9.418;2023-06-22T15:26:56;30.90;45.70
40756;DHT22;26461;45.630;9.418;2023-06-22T15:30:07;30.90;45.80
40756;DHT22;26461;45.630;9.418;2023-06-22T15:33:17;31.00;45.30
40756;DHT22;26461;45.630;9.418;2023-06-22T15:36:28;31.10;44.20
40756;DHT22;26461;45.630;9.418;2023-06-22T15:39:32;31.10;44.10
40756;DHT22;26461;45.630;9.418;2023-06-22T15:42:45;31.20;43.30
40756;DHT22;26461;45.630;9.418;2023-06-22T15:45:58;31.20;42.10
40756;DHT22;26461;45.630;9.418;2023-06-22T15:49:33;31.20;42.30
40756;DHT22;26461;45.630;9.418;2023-06-22T15:52:45;31.20;42.10
40756;DHT22;26461;45.630;9.418;2023-06-22T15:55:57;31.30;42.30
40756;DHT22;26461;45.630;9.418;2023-06-22T15:59:09;31.30;42.00
40756;DHT22;26461;45.630;9.418;2023-06-22T16:02:20;31.40;41.60
40756;DHT22;26461;45.630;9.418;2023-06-22T16:05:31;31.50;41.00
40756;DHT22;26461;45.630;9.418;2023-06-22T16:08:41;31.60;40.90
40756;DHT22;26461;45.630;9.418;2023-06-22T16:11:51;31.70;40.80
40756;DHT22;26461;45.630;9.418;2023-06-22T16:15:03;31.70;40.20
40756;DHT22;26461;45.630;9.418;2023-06-22T16:18:14;31.80;39.10
40756;DHT22;26461;45.630;9.418;2023-06-22T16:21:26;31.80;39.20
40756;DHT22;26461;45.630;9.418;2023-06-22T16:24:36;31.90;39.00
40756;DHT22;26461;45.630;9.418;2023-06-22T16:27:46;31.90;38.70
40756;DHT22;26461;45.630;9.418;2023-06-22T16:30:57;31.90;38.50
40756;DHT22;26461;45.630;9.418;2023-06-22T16:34:02;31.90;39.20
40756;DHT22;26461;45.630;9.418;2023-06-22T16:37:13;31.90;37.90
40756;DHT22;26461;45.630;9.418;2023-06-22T16:40:18;31.80;37.90
40756;DHT22;26461;45.630;9.418;2023-06-22T16:43:25;31.80;38.70
40756;DHT22;26461;45.630;9.418;2023-06-22T16:46:36;31.70;39.50
40756;DHT22;26461;45.630;9.418;2023-06-22T16:49:49;31.70;39.70
40756;DHT22;26461;45.630;9.418;2023-06-22T16:52:54;31.60;39.70
40756;DHT22;26461;45.630;9.418;2023-06-22T16:56:05;31.60;40.20
40756;DHT22;26461;45.630;9.418;2023-06-22T16:59:17;31.60;40.40
40756;DHT22;26461;45.630;9.418;2023-06-22T17:02:26;31.60;40.60
40756;DHT22;26461;45.630;9.418;2023-06-22T17:05:37;31.60;40.60
40756;DHT22;26461;45.630;9.418;2023-06-22T17:08:43;31.50;40.70
40756;DHT22;26461;45.630;9.418;2023-06-22T17:11:55;31.40;41.00
40756;DHT22;26461;45.630;9.418;2023-06-22T17:15:09;31.30;40.80
40756;DHT22;26461;45.630;9.418;2023-06-22T17:18:16;31.20;40.80
40756;DHT22;26461;45.630;9.418;2023-06-22T17:21:26;31.20;41.10
40756;DHT22;26461;45.630;9.418;2023-06-22T17:24:40;31.20;41.40
40756;DHT22;26461;45.630;9.418;2023-06-22T17:27:50;31.20;41.70
40756;DHT22;26461;45.630;9.418;2023-06-22T17:31:08;31.20;41.50
40756;DHT22;26461;45.630;9.418;2023-06-22T17:34:16;31.10;41.50
40756;DHT22;26461;45.630;9.418;2023-06-22T17:37:22;31.10;41.80
40756;DHT22;26461;45.630;9.418;2023-06-22T17:40:27;31.10;41.90
40756;DHT22;26461;45.630;9.418;2023-06-22T17:43:44;31.10;41.70
40756;DHT22;26461;45.630;9.418;2023-06-22T17:46:59;31.10;42.00
40756;DHT22;26461;45.630;9.418;2023-06-22T17:50:10;31.10;42.40
40756;DHT22;26461;45.630;9.418;2023-06-22T17:53:15;31.00;42.50
40756;DHT22;26461;45.630;9.418;2023-06-22T17:56:26;31.00;42.40
40756;DHT22;26461;45.630;9.418;2023-06-22T17:59:36;31.00;42.50
40756;DHT22;26461;45.630;9.418;2023-06-22T18:02:42;30.90;42.80
40756;DHT22;26461;45.630;9.418;2023-06-22T18:05:54;30.90;43.30
40756;DHT22;26461;45.630;9.418;2023-06-22T18:09:06;30.90;43.30
40756;DHT22;26461;45.630;9.418;2023-06-22T18:12:18;30.80;43.30
40756;DHT22;26461;45.630;9.418;2023-06-22T18:15:29;30.90;44.00
40756;DHT22;26461;45.630;9.418;2023-06-22T18:18:35;30.90;43.90
40756;DHT22;26461;45.630;9.418;2023-06-22T18:21:45;30.90;43.60
40756;DHT22;26461;45.630;9.418;2023-06-22T18:24:57;31.00;43.80
40756;DHT22;26461;45.630;9.418;2023-06-22T18:28:10;31.10;43.70
40756;DHT22;26461;45.630;9.418;2023-06-22T18:31:23;31.10;44.50
40756;DHT22;26461;45.630;9.418;2023-06-22T18:34:34;31.10;46.60
40756;DHT22;26461;45.630;9.418;2023-06-22T18:37:41;31.10;46.10
40756;DHT22;26461;45.630;9.418;2023-06-22T18:40:57;31.00;45.40
40756;DHT22;26461;45.630;9.418;2023-06-22T18:47:35;30.80;44.00
40756;DHT22;26461;45.630;9.418;2023-06-22T18:50:44;30.70;43.30
40756;DHT22;26461;45.630;9.418;2023-06-22T18:54:02;30.70;43.70
40756;DHT22;26461;45.630;9.418;2023-06-22T18:57:27;30.60;43.90
40756;DHT22;26461;45.630;9.418;2023-06-22T19:00:38;30.50;44.30
40756;DHT22;26461;45.630;9.418;2023-06-22T19:03:49;30.50;45.00
40756;DHT22;26461;45.630;9.418;2023-06-22T19:06:59;30.40;44.80
40756;DHT22;26461;45.630;9.418;2023-06-22T19:13:48;30.20;44.40
40756;DHT22;26461;45.630;9.418;2023-06-22T19:16:59;30.20;44.60
40756;DHT22;26461;45.630;9.418;2023-06-22T19:20:05;30.10;44.80
40756;DHT22;26461;45.630;9.418;2023-06-22T19:26:37;30.00;45.10
40756;DHT22;26461;45.630;9.418;2023-06-22T19:29:44;29.90;45.70
40756;DHT22;26461;45.630;9.418;2023-06-22T19:32:50;29.90;45.90
40756;DHT22;26461;45.630;9.418;2023-06-22T19:35:56;29.80;45.80
40756;DHT22;26461;45.630;9.418;2023-06-22T19:39:03;29.80;45.90
40756;DHT22;26461;45.630;9.418;2023-06-22T19:42:14;29.80;46.30
40756;DHT22;26461;45.630;9.418;2023-06-22T19:45:25;29.70;46.50
40756;DHT22;26461;45.630;9.418;2023-06-22T19:48:35;29.70;46.90
40756;DHT22;26461;45.630;9.418;2023-06-22T19:51:41;29.60;47.30
40756;DHT22;26461;45.630;9.418;2023-06-22T19:54:48;29.50;45.80
40756;DHT22;26461;45.630;9.418;2023-06-22T19:57:58;29.40;45.90
40756;DHT22;26461;45.630;9.418;2023-06-22T20:01:09;29.40;46.10
40756;DHT22;26461;45.630;9.418;2023-06-22T20:04:15;29.30;46.80
40756;DHT22;26461;45.630;9.418;2023-06-22T20:07:37;29.30;46.90
40756;DHT22;26461;45.630;9.418;2023-06-22T20:10:48;29.30;47.00
40756;DHT22;26461;45.630;9.418;2023-06-22T20:13:53;29.20;47.40
40756;DHT22;26461;45.630;9.418;2023-06-22T20:17:04;29.20;47.60
40756;DHT22;26461;45.630;9.418;2023-06-22T20:20:22;29.20;47.90